Time;durP1;ratioP1;P1;durP2;ratioP2;P2;SDS_P1;SDS_P2;PMS_P1;PMS_P2;Temp;Humidity;BMP_temperature;BMP_pressure;BME280_temperature;BME280_humidity;BME280_pressure;Samples;Min_cycle;Max_cycle;Signal;HPM_P1;HPM_P2
2022/10/30 00:00:27;;;;;;;1.55;1.30;;;14.20;99.90;;;;;;5033040;28;20860;-71
2022/10/30 00:02:52;;;;;;;0.37;0.37;;;14.20;99.90;;;;;;5033133;28;20112;-72
2022/10/30 00:05:19;;;;;;;0.83;0.83;;;14.20;99.90;;;;;;5011946;28;20177;-71
2022/10/30 00:07:45;;;;;;;;;;;14.20;99.90;;;;;;5013629;28;20034;-71
2022/10/30 00:10:11;;;;;;;0.40;0.40;;;14.20;99.90;;;;;;5019236;28;19905;-72
2022/10/30 00:12:37;;;;;;;0.90;0.90;;;14.20;99.90;;;;;;5032928;28;20079;-72
2022/10/30 00:15:02;;;;;;;0.73;0.73;;;14.10;99.90;;;;;;5032968;28;20026;-72
2022/10/30 00:17:28;;;;;;;2.63;1.20;;;14.10;99.90;;;;;;5031522;28;20044;-71
2022/10/30 00:19:54;;;;;;;2.30;1.73;;;14.20;99.90;;;;;;5032425;28;20274;-72
2022/10/30 00:22:19;;;;;;;0.93;0.93;;;14.10;99.90;;;;;;5033081;28;20044;-72
2022/10/30 00:24:45;;;;;;;1.50;1.03;;;14.10;99.90;;;;;;5029913;28;20036;-72
2022/10/30 00:27:10;;;;;;;0.97;0.97;;;14.10;99.90;;;;;;5032574;28;20436;-72
2022/10/30 00:29:36;;;;;;;1.40;1.30;;;14.10;99.90;;;;;;5032441;28;20025;-71
2022/10/30 00:32:01;;;;;;;0.80;0.80;;;14.10;99.90;;;;;;5032509;28;20028;-72
2022/10/30 00:34:27;;;;;;;0.50;0.50;;;14.10;99.90;;;;;;5032431;28;20037;-71
2022/10/30 00:36:52;;;;;;;1.57;1.47;;;14.10;99.90;;;;;;5032998;28;20079;-71
2022/10/30 00:39:18;;;;;;;0.90;0.90;;;14.10;99.90;;;;;;5032394;28;20575;-72
2022/10/30 00:41:44;;;;;;;0.67;0.67;;;14.10;99.90;;;;;;5031897;28;20033;-71
2022/10/30 00:44:34;;;;;;;1.93;1.83;;;14.00;99.90;;;;;;5031159;28;20109;-72
2022/10/30 00:47:03;;;;;;;1.05;0.98;;;14.00;99.90;;;;;;5032016;28;20037;-72
2022/10/30 00:49:32;;;;;;;1.23;1.13;;;14.00;99.90;;;;;;5030440;28;20049;-72
2022/10/30 00:51:59;;;;;;;0.40;0.40;;;14.00;99.90;;;;;;5032665;28;20472;-72
2022/10/30 00:54:25;;;;;;;4.20;2.38;;;14.00;99.90;;;;;;5032278;28;20087;-71
2022/10/30 00:56:52;;;;;;;2.50;0.93;;;14.00;99.90;;;;;;5031950;28;20041;-71
2022/10/30 00:59:29;;;;;;;0.95;0.95;;;14.00;99.90;;;;;;5031997;28;20362;-72
2022/10/30 01:01:55;;;;;;;0.60;0.60;;;13.90;99.90;;;;;;5030917;28;20037;-71
2022/10/30 01:04:22;;;;;;;0.60;0.60;;;14.00;99.90;;;;;;5031447;28;20274;-72
2022/10/30 01:06:50;;;;;;;2.88;1.55;;;13.90;99.90;;;;;;5032041;28;20091;-72
2022/10/30 01:09:17;;;;;;;4.75;1.10;;;13.90;99.90;;;;;;5031863;28;20029;-72
2022/10/30 01:11:43;;;;;;;0.68;0.68;;;13.90;99.90;;;;;;5031612;28;20469;-72
2022/10/30 01:14:13;;;;;;;0.43;0.43;;;13.90;99.90;;;;;;5031133;28;20049;-71
2022/10/30 01:16:49;;;;;;;1.17;1.10;;;13.80;99.90;;;;;;5031584;28;20037;-71
2022/10/30 01:19:37;;;;;;;3.58;1.67;;;13.80;99.90;;;;;;5031620;28;20466;-72
2022/10/30 01:22:23;;;;;;;0.98;0.98;;;13.90;99.90;;;;;;5031150;28;20507;-72
2022/10/30 01:25:04;;;;;;;0.75;0.75;;;13.90;99.90;;;;;;5029807;28;20046;-72
2022/10/30 01:27:47;;;;;;;0.32;0.32;;;13.80;99.90;;;;;;5031240;28;20061;-70
2022/10/30 01:30:34;;;;;;;0.65;0.65;;;13.90;99.90;;;;;;5031669;28;20531;-71
2022/10/30 01:33:05;;;;;;;0.52;0.52;;;13.90;99.90;;;;;;5031577;28;20029;-72
2022/10/30 01:35:52;;;;;;;2.20;1.85;;;13.80;99.90;;;;;;5029546;28;20041;-72
2022/10/30 01:38:26;;;;;;;1.15;1.10;;;13.90;99.90;;;;;;5030239;28;20201;-72
2022/10/30 01:40:52;;;;;;;0.30;0.30;;;13.80;99.90;;;;;;5031142;28;20034;-72
2022/10/30 01:43:18;;;;;;;0.60;0.60;;;13.80;99.90;;;;;;5029408;28;20539;-72
2022/10/30 01:45:52;;;;;;;6.73;1.90;;;13.80;99.90;;;;;;5031001;28;20487;-72
2022/10/30 01:48:45;;;;;;;1.10;1.10;;;13.80;99.90;;;;;;5031223;28;20045;-73
2022/10/30 01:51:38;;;;;;;0.30;0.30;;;13.80;99.90;;;;;;5031049;28;20043;-72
2022/10/30 01:54:04;;;;;;;0.80;0.80;;;13.80;99.90;;;;;;5030801;28;20033;-71
2022/10/30 01:56:32;;;;;;;1.97;0.93;;;13.80;99.90;;;;;;5031279;28;20326;-73
2022/10/30 01:59:16;;;;;;;1.00;0.90;;;13.80;99.90;;;;;;5029438;28;20029;-71
2022/10/30 02:01:42;;;;;;;0.75;0.75;;;13.80;99.90;;;;;;5030714;28;20112;-72
2022/10/30 02:04:11;;;;;;;1.00;1.00;;;13.80;99.90;;;;;;5031221;28;20112;-72
2022/10/30 02:06:37;;;;;;;2.47;1.60;;;13.80;99.90;;;;;;5030401;28;20469;-72
2022/10/30 02:09:04;;;;;;;1.70;1.60;;;13.80;99.90;;;;;;5031189;28;20036;-72
2022/10/30 02:11:31;;;;;;;1.15;1.02;;;13.80;99.90;;;;;;5030639;28;20033;-72
2022/10/30 02:13:59;;;;;;;0.75;0.75;;;13.70;99.90;;;;;;5031130;28;20701;-72
2022/10/30 02:16:25;;;;;;;0.40;0.40;;;13.70;99.90;;;;;;5031089;28;20060;-72
2022/10/30 02:18:51;;;;;;;0.70;0.70;;;13.70;99.90;;;;;;5029787;28;20041;-72
2022/10/30 02:21:17;;;;;;;1.20;1.10;;;13.60;99.90;;;;;;5030283;28;20394;-71
2022/10/30 02:23:42;;;;;;;0.67;0.67;;;13.60;99.90;;;;;;5030451;28;20041;-72
2022/10/30 02:26:08;;;;;;;0.60;0.60;;;13.70;99.90;;;;;;5030571;28;20384;-72
2022/10/30 02:28:33;;;;;;;1.10;1.10;;;13.70;99.90;;;;;;5030958;28;20392;-72
2022/10/30 02:30:59;;;;;;;0.70;0.70;;;13.70;99.90;;;;;;5030452;28;20029;-72
2022/10/30 02:33:24;;;;;;;1.90;1.80;;;13.70;99.90;;;;;;5030684;28;20044;-72
2022/10/30 02:35:50;;;;;;;1.03;0.60;;;13.70;99.90;;;;;;5030471;28;20061;-72
2022/10/30 02:38:17;;;;;;;0.45;0.45;;;13.60;99.90;;;;;;5030578;28;20025;-72
2022/10/30 02:40:43;;;;;;;1.75;1.65;;;13.60;99.90;;;;;;5030193;28;20041;-72
2022/10/30 02:43:08;;;;;;;0.50;0.50;;;13.60;99.90;;;;;;5029040;28;20028;-72
2022/10/30 02:45:34;;;;;;;0.40;0.40;;;13.50;99.90;;;;;;5030864;28;20040;-72
2022/10/30 02:48:00;;;;;;;0.60;0.60;;;13.50;99.90;;;;;;5033540;28;20386;-72
2022/10/30 02:50:26;;;;;;;1.03;0.97;;;13.50;99.90;;;;;;5034056;28;20056;-72
2022/10/30 02:52:51;;;;;;;0.52;0.52;;;13.50;99.90;;;;;;5034398;28;20033;-72
2022/10/30 02:55:17;;;;;;;1.10;1.10;;;13.50;99.90;;;;;;5034555;28;20107;-71
2022/10/30 02:57:43;;;;;;;1.37;1.27;;;13.50;99.90;;;;;;5033870;28;20396;-72
2022/10/30 03:00:09;;;;;;;0.57;0.57;;;13.50;99.90;;;;;;5032632;28;20037;-72
2022/10/30 03:02:35;;;;;;;0.57;0.57;;;13.40;99.90;;;;;;5034051;28;20022;-72
2022/10/30 03:05:00;;;;;;;0.53;0.53;;;13.20;99.90;;;;;;5033948;28;20044;-72
2022/10/30 03:07:26;;;;;;;1.07;1.00;;;13.30;99.90;;;;;;5034019;28;20037;-72
2022/10/30 03:09:53;;;;;;;1.50;0.83;;;13.30;99.90;;;;;;5034185;28;20373;-71
2022/10/30 03:12:18;;;;;;;;;;;13.30;99.90;;;;;;5034067;28;20473;-71
2022/10/30 03:14:44;;;;;;;0.57;0.57;;;13.20;99.90;;;;;;5034216;28;19913;-71
2022/10/30 03:17:10;;;;;;;1.03;0.97;;;13.20;99.90;;;;;;5033982;28;20105;-72
2022/10/30 03:19:35;;;;;;;1.03;1.03;;;13.20;99.90;;;;;;5033771;28;20137;-72
2022/10/30 03:22:01;;;;;;;0.57;0.57;;;13.10;99.90;;;;;;5032581;28;20037;-72
2022/10/30 03:24:26;;;;;;;4.40;2.70;;;13.10;99.90;;;;;;5033998;28;20094;-72
2022/10/30 03:26:52;;;;;;;22.27;1.50;;;13.10;99.90;;;;;;5033336;28;20029;-72
2022/10/30 03:29:18;;;;;;;0.47;0.47;;;13.10;99.90;;;;;;5033316;28;20431;-72
2022/10/30 03:31:43;;;;;;;1.17;1.07;;;13.00;99.90;;;;;;5033820;28;20039;-72
2022/10/30 03:34:09;;;;;;;0.77;0.77;;;13.10;99.90;;;;;;5033556;28;20142;-72
2022/10/30 03:36:34;;;;;;;2.53;1.33;;;13.00;99.90;;;;;;5033798;28;20033;-72
2022/10/30 03:39:00;;;;;;;4.20;1.07;;;12.90;99.90;;;;;;5032312;28;20021;-72
2022/10/30 03:41:25;;;;;;;0.50;0.50;;;12.90;99.90;;;;;;5033573;28;20115;-72
2022/10/30 03:43:51;;;;;;;0.90;0.90;;;12.90;99.90;;;;;;5033694;28;20056;-71
2022/10/30 03:46:16;;;;;;;1.03;1.03;;;13.00;99.90;;;;;;5032284;28;20410;-72
2022/10/30 03:48:42;;;;;;;0.57;0.57;;;13.00;99.90;;;;;;5033420;28;20394;-71
2022/10/30 03:51:07;;;;;;;3.43;2.30;;;12.90;99.90;;;;;;5033519;28;20034;-72
2022/10/30 03:53:33;;;;;;;0.40;0.40;;;12.90;99.90;;;;;;5033260;28;20091;-71
2022/10/30 03:56:01;;;;;;;0.30;0.30;;;12.90;99.90;;;;;;5033709;28;20037;-72
2022/10/30 03:58:28;;;;;;;0.55;0.55;;;12.80;99.90;;;;;;5030305;28;20121;-73
2022/10/30 04:00:54;;;;;;;0.52;0.52;;;12.90;99.90;;;;;;5033293;28;20041;-72
2022/10/30 04:03:19;;;;;;;0.40;0.40;;;12.80;99.90;;;;;;5033125;28;20030;-71
2022/10/30 04:05:45;;;;;;;3.30;2.10;;;12.90;99.90;;;;;;5033051;28;20278;-71
2022/10/30 04:08:13;;;;;;;2.00;1.67;;;12.80;99.90;;;;;;5033126;28;20381;-70
2022/10/30 04:10:43;;;;;;;0.68;0.68;;;12.80;99.90;;;;;;5033213;28;20026;-72
2022/10/30 04:13:10;;;;;;;0.30;0.30;;;12.70;99.90;;;;;;5032499;28;20384;-72
2022/10/30 04:15:36;;;;;;;0.70;0.70;;;12.70;99.90;;;;;;5032891;28;20120;-71
2022/10/30 04:18:02;;;;;;;2.38;2.17;;;12.70;99.90;;;;;;5031497;28;20533;-71
2022/10/30 04:20:28;;;;;;;0.63;0.63;;;12.70;99.90;;;;;;5032994;28;20040;-72
2022/10/30 04:22:59;;;;;;;1.00;1.00;;;12.60;99.90;;;;;;5032628;28;20108;-71
2022/10/30 04:25:25;;;;;;;1.65;1.50;;;12.80;99.90;;;;;;5032846;28;20088;-71
2022/10/30 04:27:54;;;;;;;0.57;0.57;;;12.70;99.90;;;;;;5032308;28;20182;-72
2022/10/30 04:30:20;;;;;;;0.73;0.73;;;12.70;99.90;;;;;;5031131;28;20120;-70
2022/10/30 04:32:51;;;;;;;0.45;0.45;;;12.70;99.90;;;;;;5032841;28;20034;-71
2022/10/30 04:35:18;;;;;;;0.47;0.47;;;12.60;99.90;;;;;;5030981;28;20044;-71
2022/10/30 04:38:01;;;;;;;0.30;0.30;;;12.70;99.90;;;;;;5032514;28;20037;-72
2022/10/30 04:40:29;;;;;;;2.60;2.17;;;12.60;99.90;;;;;;5032353;28;20259;-72
2022/10/30 04:42:55;;;;;;;10.50;3.05;;;12.70;99.90;;;;;;5031990;28;20057;-72
2022/10/30 04:45:21;;;;;;;0.80;0.80;;;12.70;99.90;;;;;;5031105;28;20110;-71
2022/10/30 04:47:47;;;;;;;0.40;0.40;;;12.70;99.90;;;;;;5032254;28;20456;-71
2022/10/30 04:50:13;;;;;;;0.50;0.50;;;12.70;99.90;;;;;;5032201;28;20026;-72
2022/10/30 04:52:41;;;;;;;0.50;0.50;;;12.70;99.90;;;;;;5030595;28;20064;-71
2022/10/30 04:55:07;;;;;;;0.60;0.60;;;12.70;99.90;;;;;;5032158;28;20432;-71
2022/10/30 04:57:34;;;;;;;3.53;2.25;;;12.80;99.90;;;;;;5031586;28;20052;-72
2022/10/30 04:59:59;;;;;;;0.63;0.60;;;12.70;99.90;;;;;;5030339;28;20049;-72
2022/10/30 05:02:25;;;;;;;2.87;2.23;;;12.70;99.90;;;;;;5032349;28;20033;-72
2022/10/30 05:04:50;;;;;;;0.50;0.50;;;12.70;99.90;;;;;;5031766;28;20087;-71
2022/10/30 05:07:17;;;;;;;0.30;0.30;;;12.80;99.90;;;;;;5031753;28;20108;-72
2022/10/30 05:09:43;;;;;;;2.08;1.95;;;12.80;99.90;;;;;;5031447;28;20025;-72
2022/10/30 05:12:09;;;;;;;1.70;1.60;;;12.80;99.90;;;;;;5031891;28;20042;-72
2022/10/30 05:14:35;;;;;;;1.70;1.58;;;12.80;99.90;;;;;;5030829;28;20087;-72
2022/10/30 05:17:01;;;;;;;0.77;0.77;;;12.80;99.90;;;;;;5030165;28;20045;-71
2022/10/30 05:19:27;;;;;;;0.40;0.40;;;12.80;99.90;;;;;;5031638;28;20043;-72
2022/10/30 05:21:53;;;;;;;0.30;0.30;;;12.80;99.90;;;;;;5030114;28;20121;-72
2022/10/30 05:24:18;;;;;;;0.40;0.40;;;12.80;99.90;;;;;;5030096;28;20558;-72
2022/10/30 05:26:45;;;;;;;0.30;0.30;;;12.80;99.90;;;;;;5031671;28;20037;-73
2022/10/30 05:29:11;;;;;;;0.30;0.30;;;12.80;99.90;;;;;;5031021;28;20100;-72
2022/10/30 05:31:36;;;;;;;0.30;0.30;;;12.80;99.90;;;;;;5031454;28;20038;-71
2022/10/30 05:34:02;;;;;;;0.30;0.30;;;12.80;99.90;;;;;;5031513;28;20025;-71
2022/10/30 05:36:27;;;;;;;0.43;0.43;;;12.80;99.90;;;;;;5031161;28;20041;-71
2022/10/30 05:38:53;;;;;;;0.30;0.30;;;12.80;99.90;;;;;;5031218;28;20045;-72
2022/10/30 05:41:19;;;;;;;1.60;1.50;;;12.80;99.90;;;;;;5031347;28;20044;-72
2022/10/30 05:43:44;;;;;;;0.63;0.63;;;12.80;99.90;;;;;;5030561;28;20034;-72
2022/10/30 05:46:10;;;;;;;1.07;1.07;;;12.90;99.90;;;;;;5031157;28;20045;-72
2022/10/30 05:48:36;;;;;;;0.40;0.40;;;12.90;99.90;;;;;;5031000;28;20055;-71
2022/10/30 05:51:03;;;;;;;0.30;0.30;;;12.90;99.90;;;;;;5031153;28;20029;-72
2022/10/30 05:53:28;;;;;;;0.40;0.40;;;12.90;99.90;;;;;;5029629;28;20438;-72
2022/10/30 05:55:58;;;;;;;0.70;0.70;;;13.00;99.90;;;;;;5031278;28;20122;-72
2022/10/30 05:58:24;;;;;;;0.35;0.35;;;13.00;99.90;;;;;;5031067;28;20036;-72
2022/10/30 06:00:50;;;;;;;0.30;0.30;;;13.00;99.90;;;;;;5029761;28;20367;-72
2022/10/30 06:03:15;;;;;;;0.85;0.85;;;13.00;99.90;;;;;;5029925;28;20030;-71
2022/10/30 06:05:45;;;;;;;0.30;0.30;;;13.00;99.90;;;;;;5030973;28;20099;-72
2022/10/30 06:08:10;;;;;;;0.30;0.30;;;13.10;99.90;;;;;;5029587;28;20036;-72
2022/10/30 06:10:36;;;;;;;0.40;0.40;;;13.30;99.90;;;;;;5030962;28;20030;-71
2022/10/30 06:13:04;;;;;;;0.37;0.37;;;12.90;99.90;;;;;;5031107;28;20461;-72
2022/10/30 06:15:30;;;;;;;0.60;0.60;;;13.10;99.90;;;;;;5030479;28;20033;-73
2022/10/30 06:17:56;;;;;;;0.30;0.30;;;13.00;99.90;;;;;;5031006;28;20060;-72
2022/10/30 06:20:24;;;;;;;0.32;0.32;;;12.90;99.90;;;;;;5030488;28;20069;-72
2022/10/30 06:23:01;;;;;;;0.30;0.30;;;13.00;99.90;;;;;;5029992;28;20506;-72
2022/10/30 06:25:28;;;;;;;0.40;0.40;;;13.10;99.90;;;;;;5030566;28;20433;-71
2022/10/30 06:27:53;;;;;;;0.30;0.30;;;13.00;99.90;;;;;;5031072;28;20038;-72
2022/10/30 06:30:20;;;;;;;0.90;0.87;;;13.00;99.90;;;;;;5030302;28;20026;-72
2022/10/30 06:32:46;;;;;;;0.60;0.60;;;13.00;99.90;;;;;;5031138;28;20033;-72
2022/10/30 06:35:11;;;;;;;0.50;0.50;;;13.00;99.90;;;;;;5030464;28;20061;-72
2022/10/30 06:37:40;;;;;;;0.30;0.30;;;13.00;99.90;;;;;;5030740;28;20430;-72
2022/10/30 06:40:08;;;;;;;0.80;0.68;;;13.00;99.90;;;;;;5030581;28;20060;-72
2022/10/30 06:42:48;;;;;;;0.30;0.30;;;13.00;99.90;;;;;;5030935;28;20109;-72
2022/10/30 06:45:14;;;;;;;0.30;0.30;;;13.00;99.90;;;;;;5030110;28;20396;-72
2022/10/30 06:47:40;;;;;;;0.25;0.25;;;13.00;99.90;;;;;;5028996;28;20065;-72
2022/10/30 06:50:08;;;;;;;0.30;0.30;;;13.00;99.90;;;;;;5030966;28;20068;-72
2022/10/30 06:52:34;;;;;;;0.30;0.30;;;13.00;99.90;;;;;;5030699;28;20084;-71
2022/10/30 06:55:00;;;;;;;0.50;0.50;;;13.00;99.90;;;;;;5029215;28;20049;-72
2022/10/30 06:57:25;;;;;;;0.50;0.50;;;13.00;99.90;;;;;;5030285;28;20030;-72
2022/10/30 06:59:51;;;;;;;0.43;0.43;;;13.00;99.90;;;;;;5028735;28;20041;-72
2022/10/30 07:02:17;;;;;;;0.37;0.37;;;13.00;99.90;;;;;;5030313;28;20037;-72
2022/10/30 07:04:44;;;;;;;0.30;0.30;;;13.00;99.90;;;;;;5030341;28;20037;-72
2022/10/30 07:07:10;;;;;;;0.30;0.30;;;13.00;99.90;;;;;;5029258;28;20532;-71
2022/10/30 07:09:35;;;;;;;0.83;0.83;;;13.10;99.90;;;;;;5030394;28;20152;-72
2022/10/30 07:12:01;;;;;;;0.30;0.30;;;13.10;99.90;;;;;;5030703;28;20041;-72
2022/10/30 07:14:27;;;;;;;1.37;1.33;;;13.10;99.90;;;;;;5029863;28;20481;-72
2022/10/30 07:16:54;;;;;;;0.30;0.30;;;13.00;99.90;;;;;;5030718;28;20044;-72
2022/10/30 07:19:19;;;;;;;0.20;0.20;;;13.00;99.90;;;;;;5030393;28;20159;-73
2022/10/30 07:21:45;;;;;;;0.30;0.30;;;13.10;99.90;;;;;;5030710;28;20053;-71
2022/10/30 07:24:10;;;;;;;0.30;0.30;;;13.10;99.90;;;;;;5028444;28;20440;-72
2022/10/30 07:26:37;;;;;;;3.10;1.60;;;14.30;99.90;;;;;;5030068;28;20037;-72
2022/10/30 07:29:03;;;;;;;0.80;0.80;;;13.10;99.90;;;;;;5028900;28;20030;-72
2022/10/30 07:31:29;;;;;;;0.30;0.30;;;13.10;99.90;;;;;;5029830;28;20069;-72
2022/10/30 07:33:54;;;;;;;0.63;0.63;;;13.10;99.90;;;;;;5032072;28;20045;-73
2022/10/30 07:36:21;;;;;;;0.50;0.50;;;13.10;99.90;;;;;;5032368;28;20030;-73
2022/10/30 07:38:50;;;;;;;0.50;0.50;;;13.10;99.90;;;;;;5033298;28;20408;-72
2022/10/30 07:41:20;;;;;;;0.45;0.45;;;13.10;99.90;;;;;;5031997;28;20036;-73
2022/10/30 07:43:46;;;;;;;0.30;0.30;;;13.10;99.90;;;;;;5033332;28;20528;-72
2022/10/30 07:46:12;;;;;;;0.87;0.87;;;13.10;99.90;;;;;;5033109;28;20028;-72
2022/10/30 07:48:38;;;;;;;0.45;0.45;;;13.10;99.90;;;;;;5031722;28;20049;-72
2022/10/30 07:51:04;;;;;;;0.30;0.30;;;13.00;99.90;;;;;;5033331;28;20500;-72
2022/10/30 07:53:29;;;;;;;0.37;0.37;;;13.10;99.90;;;;;;5033186;28;20044;-72
2022/10/30 07:55:55;;;;;;;0.40;0.40;;;13.00;99.90;;;;;;5032860;28;20346;-72
2022/10/30 07:58:21;;;;;;;0.35;0.35;;;13.10;99.90;;;;;;5033111;28;20048;-73
2022/10/30 08:00:47;;;;;;;2.53;1.20;;;13.00;99.90;;;;;;5032688;28;20455;-72
2022/10/30 08:03:13;;;;;;;0.60;0.57;;;13.00;99.90;;;;;;5032989;28;20026;-73
2022/10/30 08:05:39;;;;;;;0.30;0.30;;;13.10;99.90;;;;;;5032977;28;20078;-72
2022/10/30 08:08:05;;;;;;;0.30;0.30;;;13.00;99.90;;;;;;5032993;28;20057;-73
2022/10/30 08:10:31;;;;;;;0.75;0.75;;;13.00;99.90;;;;;;5032534;28;20029;-72
2022/10/30 08:12:57;;;;;;;0.37;0.37;;;13.00;99.90;;;;;;5032811;28;20083;-72
2022/10/30 08:15:22;;;;;;;3.10;0.97;;;13.00;99.90;;;;;;5032447;28;20102;-72
2022/10/30 08:17:49;;;;;;;0.30;0.30;;;13.00;99.90;;;;;;5031777;28;20461;-72
2022/10/30 08:20:17;;;;;;;0.38;0.38;;;13.00;99.90;;;;;;5032714;28;20029;-72
2022/10/30 08:22:54;;;;;;;0.20;0.20;;;13.00;99.90;;;;;;5032854;28;20029;-72
2022/10/30 08:25:22;;;;;;;0.50;0.50;;;13.10;99.90;;;;;;5032220;28;20033;-72
2022/10/30 08:27:59;;;;;;;0.40;0.40;;;13.10;99.90;;;;;;5032614;28;20756;-73
2022/10/30 08:30:28;;;;;;;0.30;0.30;;;13.10;99.90;;;;;;5032099;28;20081;-71
2022/10/30 08:32:57;;;;;;;0.73;0.70;;;13.10;99.90;;;;;;5031077;28;20025;-72
2022/10/30 08:35:23;;;;;;;0.50;0.50;;;13.10;99.90;;;;;;5032548;28;20538;-72
2022/10/30 08:37:51;;;;;;;0.30;0.30;;;13.10;99.90;;;;;;5032273;28;20030;-72
2022/10/30 08:40:16;;;;;;;0.30;0.30;;;13.10;99.90;;;;;;5030521;28;20028;-72
2022/10/30 08:42:48;;;;;;;0.87;0.87;;;13.10;99.90;;;;;;5031414;28;20029;-72
2022/10/30 08:45:14;;;;;;;0.40;0.40;;;13.10;99.90;;;;;;5031340;28;20029;-72
2022/10/30 08:47:39;;;;;;;0.40;0.40;;;13.10;99.90;;;;;;5031680;28;20315;-72
2022/10/30 08:50:05;;;;;;;0.70;0.70;;;13.10;99.90;;;;;;5032192;28;20018;-71
2022/10/30 08:52:31;;;;;;;0.87;0.87;;;13.10;99.90;;;;;;5032524;28;20104;-72
2022/10/30 08:54:56;;;;;;;0.30;0.30;;;13.10;99.90;;;;;;5031849;28;20035;-72
2022/10/30 08:57:22;;;;;;;0.20;0.20;;;13.20;99.90;;;;;;5032422;28;20113;-71
2022/10/30 08:59:47;;;;;;;0.30;0.30;;;13.20;99.90;;;;;;5031927;28;20033;-72
2022/10/30 09:02:13;;;;;;;0.30;0.30;;;13.20;99.90;;;;;;5031699;28;20567;-73
2022/10/30 09:04:38;;;;;;;0.30;0.30;;;13.20;99.90;;;;;;5031427;28;20033;-73
2022/10/30 09:07:04;;;;;;;0.30;0.30;;;13.10;99.90;;;;;;5032436;28;20037;-73
2022/10/30 09:09:30;;;;;;;1.23;1.17;;;13.20;99.90;;;;;;5031479;28;20090;-72
2022/10/30 09:11:55;;;;;;;0.40;0.40;;;13.20;99.90;;;;;;5032056;28;20037;-71
2022/10/30 09:14:21;;;;;;;0.60;0.60;;;13.20;99.90;;;;;;5031530;28;20079;-72
2022/10/30 09:16:46;;;;;;;0.47;0.47;;;13.20;99.90;;;;;;5031409;28;20037;-73
2022/10/30 09:19:12;;;;;;;0.40;0.40;;;13.20;99.90;;;;;;5031281;28;20576;-72
2022/10/30 09:21:37;;;;;;;0.30;0.30;;;13.20;99.90;;;;;;5031394;28;20049;-72
2022/10/30 09:24:03;;;;;;;0.50;0.50;;;13.20;99.90;;;;;;5031298;28;20021;-72
2022/10/30 09:26:29;;;;;;;0.30;0.30;;;13.20;99.90;;;;;;5029768;28;20032;-72
2022/10/30 09:28:54;;;;;;;0.40;0.40;;;13.20;99.90;;;;;;5031225;28;20017;-72
2022/10/30 09:31:20;;;;;;;2.90;1.10;;;13.10;99.90;;;;;;5030985;28;20144;-73
2022/10/30 09:33:45;;;;;;;0.30;0.30;;;13.10;99.90;;;;;;5031006;28;20107;-72
2022/10/30 09:36:11;;;;;;;0.30;0.30;;;13.10;99.90;;;;;;5031227;28;20036;-71
2022/10/30 09:38:36;;;;;;;0.40;0.40;;;13.10;99.90;;;;;;5031156;28;20030;-70
2022/10/30 09:41:12;;;;;;;0.30;0.30;;;13.20;99.90;;;;;;5030804;28;20030;-70
2022/10/30 09:44:02;;;;;;;0.40;0.40;;;13.20;99.90;;;;;;5030842;28;20048;-71
2022/10/30 09:46:54;;;;;;;0.47;0.47;;;13.30;99.90;;;;;;5030683;28;20126;-70
2022/10/30 09:49:44;;;;;;;0.40;0.40;;;13.30;99.90;;;;;;5030901;28;20444;-70
2022/10/30 09:52:33;;;;;;;0.30;0.30;;;13.30;99.90;;;;;;5030728;28;20037;-71
2022/10/30 09:55:14;;;;;;;0.40;0.40;;;13.40;99.90;;;;;;5030914;28;20116;-70
2022/10/30 09:57:49;;;;;;;0.52;0.52;;;13.40;99.90;;;;;;5010252;28;20029;-70
2022/10/30 10:00:21;;;;;;;0.50;0.50;;;13.40;99.90;;;;;;5011243;28;20366;-70
2022/10/30 10:02:56;;;;;;;0.47;0.47;;;13.40;99.90;;;;;;5021070;28;20037;-70
2022/10/30 10:05:31;;;;;;;0.40;0.40;;;13.40;99.90;;;;;;5029414;28;20132;-70
2022/10/30 10:08:01;;;;;;;0.90;0.77;;;13.40;99.90;;;;;;5030567;28;20393;-70
2022/10/30 10:10:45;;;;;;;0.30;0.30;;;13.40;99.90;;;;;;5029564;28;20442;-70
2022/10/30 10:13:44;;;;;;;0.35;0.35;;;13.40;99.90;;;;;;5031086;28;20053;-70
2022/10/30 10:16:21;;;;;;;0.25;0.25;;;13.40;99.90;;;;;;5029620;28;20311;-70
2022/10/30 10:18:54;;;;;;;0.30;0.30;;;13.40;99.90;;;;;;5030397;28;20029;-70
2022/10/30 10:21:27;;;;;;;0.20;0.20;;;13.50;99.90;;;;;;5031124;28;20045;-69
2022/10/30 10:24:02;;;;;;;4.38;0.95;;;13.50;99.90;;;;;;5029541;28;20033;-71
2022/10/30 10:26:46;;;;;;;0.93;0.85;;;13.50;99.90;;;;;;5029168;28;20536;-70
2022/10/30 10:29:47;;;;;;;0.30;0.30;;;13.50;99.90;;;;;;5030602;28;20466;-71
2022/10/30 10:32:30;;;;;;;0.28;0.28;;;13.50;99.90;;;;;;5029560;28;20516;-70
2022/10/30 10:35:21;;;;;;;0.75;0.65;;;13.60;99.90;;;;;;5030858;28;20082;-71
2022/10/30 10:38:00;;;;;;;3.30;0.68;;;13.50;99.90;;;;;;5029721;28;20042;-70
2022/10/30 10:40:38;;;;;;;0.35;0.35;;;13.50;99.90;;;;;;5030852;28;20048;-71
2022/10/30 10:43:27;;;;;;;0.35;0.35;;;13.60;99.90;;;;;;5030609;28;20469;-70
2022/10/30 10:46:17;;;;;;;0.30;0.30;;;13.60;99.90;;;;;;5031124;28;20473;-70
2022/10/30 10:49:16;;;;;;;0.30;0.30;;;13.60;99.90;;;;;;5029715;28;20045;-70
2022/10/30 10:51:46;;;;;;;0.22;0.22;;;13.60;99.90;;;;;;5030512;28;20088;-69
2022/10/30 10:54:24;;;;;;;0.57;0.57;;;13.60;99.90;;;;;;5030350;28;20089;-70
2022/10/30 10:56:50;;;;;;;0.30;0.30;;;13.70;99.90;;;;;;5030145;28;20497;-72
2022/10/30 10:59:27;;;;;;;0.30;0.30;;;13.70;99.90;;;;;;5030152;28;20029;-71
2022/10/30 11:02:14;;;;;;;0.40;0.40;;;13.70;99.90;;;;;;5030342;28;20034;-72
2022/10/30 11:04:44;;;;;;;0.52;0.52;;;13.70;99.90;;;;;;5029751;28;20095;-70
2022/10/30 11:07:25;;;;;;;0.22;0.22;;;13.70;99.90;;;;;;5030429;28;20455;-72
2022/10/30 11:09:53;;;;;;;0.30;0.30;;;13.80;99.90;;;;;;5032604;28;20095;-71
2022/10/30 11:12:39;;;;;;;0.30;0.30;;;13.80;99.90;;;;;;5033599;28;20036;-70
2022/10/30 11:15:17;;;;;;;0.82;0.82;;;13.80;99.90;;;;;;5033982;28;20465;-70
2022/10/30 11:18:02;;;;;;;0.35;0.35;;;13.80;99.90;;;;;;5034055;28;20060;-70
2022/10/30 11:20:48;;;;;;;0.50;0.50;;;13.80;99.90;;;;;;5035129;28;20047;-71
2022/10/30 11:23:39;;;;;;;0.32;0.32;;;13.90;99.90;;;;;;5034050;28;20041;-71
2022/10/30 11:26:27;;;;;;;0.30;0.30;;;13.90;99.90;;;;;;5033631;28;20507;-70
2022/10/30 11:28:54;;;;;;;;;;;13.80;99.90;;;;;;5034308;28;20492;-70
2022/10/30 11:31:36;;;;;;;0.40;0.40;;;13.90;99.90;;;;;;5034045;28;19913;-70
2022/10/30 11:34:17;;;;;;;0.30;0.30;;;13.90;99.90;;;;;;5013153;28;20034;-70
2022/10/30 11:37:02;;;;;;;0.30;0.30;;;13.80;99.90;;;;;;5014020;28;20073;-70
2022/10/30 11:39:31;;;;;;;0.20;0.20;;;13.90;99.90;;;;;;5028784;28;20048;-70
2022/10/30 11:42:02;;;;;;;0.35;0.35;;;13.90;99.90;;;;;;5013638;28;20489;-70
2022/10/30 11:44:37;;;;;;;0.35;0.35;;;13.90;99.90;;;;;;5013300;28;20410;-71
2022/10/30 11:47:05;;;;;;;0.65;0.63;;;13.90;99.90;;;;;;5028799;28;20034;-70
2022/10/30 11:49:37;;;;;;;0.30;0.30;;;14.00;99.90;;;;;;5023500;28;20083;-72
2022/10/30 11:52:04;;;;;;;0.30;0.30;;;14.10;99.90;;;;;;5031725;28;20579;-71
2022/10/30 11:54:34;;;;;;;;;;;14.10;99.90;;;;;;5032481;28;20022;-71
2022/10/30 11:56:59;;;;;;;0.30;0.30;;;14.10;99.90;;;;;;5033373;28;19917;-71
2022/10/30 11:59:25;;;;;;;1.27;1.17;;;14.00;99.90;;;;;;5031406;28;20058;-71
2022/10/30 12:02:00;;;;;;;0.33;0.33;;;14.10;99.90;;;;;;5033440;28;20033;-70
2022/10/30 12:04:27;;;;;;;0.30;0.30;;;14.00;99.90;;;;;;5031079;28;20051;-70
2022/10/30 12:07:07;;;;;;;0.90;0.50;;;14.00;99.90;;;;;;5032737;28;20248;-71
2022/10/30 12:09:44;;;;;;;0.30;0.30;;;14.00;99.90;;;;;;5033390;28;20315;-70
2022/10/30 12:12:16;;;;;;;0.50;0.50;;;14.00;99.90;;;;;;5032656;28;20159;-70
2022/10/30 12:14:42;;;;;;;0.40;0.40;;;13.90;99.90;;;;;;5032651;28;20029;-71
2022/10/30 12:17:12;;;;;;;1.80;0.63;;;13.90;99.90;;;;;;5033196;28;20041;-71
2022/10/30 12:19:52;;;;;;;0.55;0.55;;;13.80;99.90;;;;;;5031452;28;20025;-71
2022/10/30 12:22:32;;;;;;;0.30;0.30;;;13.80;99.90;;;;;;5031708;28;20041;-70
2022/10/30 12:25:01;;;;;;;0.30;0.30;;;13.80;99.90;;;;;;5032850;28;20033;-70
2022/10/30 12:27:30;;;;;;;0.30;0.30;;;13.80;99.90;;;;;;5033179;28;20036;-72
2022/10/30 12:30:17;;;;;;;0.30;0.30;;;13.80;99.90;;;;;;5032448;28;20034;-70
2022/10/30 12:32:49;;;;;;;0.30;0.30;;;13.80;99.90;;;;;;5031328;28;20124;-70
2022/10/30 12:35:41;;;;;;;0.22;0.22;;;13.80;99.90;;;;;;5032233;28;20037;-71
2022/10/30 12:38:25;;;;;;;0.40;0.40;;;13.80;99.90;;;;;;5033082;28;20033;-70
2022/10/30 12:40:57;;;;;;;0.60;0.60;;;13.80;99.90;;;;;;5032598;28;20025;-70
2022/10/30 12:43:26;;;;;;;0.30;0.30;;;13.90;99.90;;;;;;5032738;28;20033;-70
2022/10/30 12:46:18;;;;;;;0.20;0.20;;;13.90;99.90;;;;;;5032517;28;20124;-70
2022/10/30 12:48:52;;;;;;;0.25;0.25;;;13.90;99.90;;;;;;5032086;28;20058;-70
2022/10/30 12:51:43;;;;;;;0.38;0.38;;;13.80;99.90;;;;;;5031919;28;20473;-71
2022/10/30 12:54:08;;;;;;;0.32;0.32;;;13.80;99.90;;;;;;5032019;28;20053;-70
2022/10/30 12:56:40;;;;;;;0.73;0.73;;;13.90;99.90;;;;;;5031993;28;20033;-70
2022/10/30 12:59:29;;;;;;;0.30;0.30;;;13.70;99.90;;;;;;5031565;28;20036;-71
2022/10/30 13:02:03;;;;;;;0.40;0.40;;;13.70;99.90;;;;;;5032009;28;20064;-71